»·PEaware :: WAT590 KTEX-KABQ

WAT590 :: KTEX-KABQ

FLIGHT INFORMATION

Flight Status: Arrived
Operator:
Walker Air Transport
More flights by this operator :: More flights under this callsign
Pilot: Skye D. (10623)
Aircraft: BEECH AIRCRAFT SUPER KING AIR 350
(B350)
More flights by this aircraft type
Origin: KTEX Telluride Regl
United States
Destination: KABQ Albuquerque Intl Sunport
United States
More flights between these airports :: More routes between these airports
Route: ETL V382 DRO TANER CURLY3
File this flight plan on PilotEdge
Remarks: RMK / SIMBRIEF
Altitude:
(Current/Filed)
27,000ft
Speed:
(Current/Filed)
312kts
Departed: 18-Oct-23 02:01 PM
Arrived: 18-Oct-23 02:52 PM
Distance/Time
Traveled:
186nm/0:51
Distance/Time
To Go:
Arrived

Flight Plot

Page will automatically refresh every two minutes.

Flight plan parsing failed; only flown route is shown


Map Options




Map Legend


Flown Route
Filed Route
Departure Airport
Arrival Airport
Navaid (VOR, NDB)
Fix

Horizontal Profiles

Position Reports

Time Latitude Longitude Heading Altitude Ground
Speed
18-Oct-23 13:26 37.954056 -107.901450 192 9075ft 0kts
18-Oct-23 13:27 37.954056 -107.901450 192 9075ft 0kts
18-Oct-23 13:29 37.954056 -107.901450 192 9075ft 0kts
18-Oct-23 13:30 37.954056 -107.901450 192 9075ft 0kts
18-Oct-23 13:30 37.954056 -107.901450 192 9075ft 0kts
18-Oct-23 13:31 37.954056 -107.901450 192 9075ft 0kts
18-Oct-23 13:32 37.954056 -107.901450 192 9075ft 0kts
18-Oct-23 13:33 37.954056 -107.901450 192 9075ft 0kts
18-Oct-23 13:34 37.954056 -107.901450 192 9075ft 0kts
18-Oct-23 13:35 37.954056 -107.901450 192 9075ft 0kts
18-Oct-23 13:36 37.954056 -107.901450 192 9075ft 0kts
18-Oct-23 13:37 37.954056 -107.901450 192 9075ft 0kts
18-Oct-23 13:38 37.954056 -107.901450 192 9075ft 0kts
18-Oct-23 13:39 37.954056 -107.901450 192 9075ft 0kts
18-Oct-23 13:40 37.954056 -107.901450 0 9075ft 0kts
18-Oct-23 13:41 37.954056 -107.901450 192 9075ft 0kts
18-Oct-23 13:42 37.954056 -107.901450 192 9075ft 0kts
18-Oct-23 13:43 37.954056 -107.901450 192 9075ft 0kts
18-Oct-23 13:44 37.954056 -107.901450 192 9075ft 0kts
18-Oct-23 13:45 37.954056 -107.901450 192 9075ft 0kts
18-Oct-23 13:46 37.953564 -107.901440 132 9075ft 4kts
18-Oct-23 13:47 37.952791 -107.898540 106 9075ft 12kts
18-Oct-23 13:48 37.952487 -107.897221 108 9075ft 0kts
18-Oct-23 13:49 37.952487 -107.897221 108 9075ft 0kts
18-Oct-23 13:50 37.952487 -107.897221 108 9075ft 0kts
18-Oct-23 13:51 37.952487 -107.897221 108 9075ft 0kts
18-Oct-23 13:52 37.952487 -107.897221 108 9075ft 0kts
18-Oct-23 13:53 37.952487 -107.897221 108 9075ft 0kts
18-Oct-23 13:54 37.952487 -107.897221 108 9075ft 0kts
18-Oct-23 13:55 37.952487 -107.897221 108 9075ft 0kts
18-Oct-23 13:56 37.952487 -107.897221 108 9075ft 0kts
18-Oct-23 13:57 37.952487 -107.897221 108 9075ft 0kts
18-Oct-23 13:58 37.952401 -107.896933 116 9075ft 4kts
18-Oct-23 13:59 37.951585 -107.898198 285 9075ft 30kts
18-Oct-23 14:00 37.958862 -107.932836 287 9774ft 142kts
18-Oct-23 14:01 37.970314 -107.986741 285 11759ft 168kts
18-Oct-23 14:02 37.982536 -108.045022 288 14033ft 164kts
18-Oct-23 14:03 37.998842 -108.103304 292 15433ft 186kts
18-Oct-23 14:04 38.016388 -108.167973 290 16856ft 198kts
18-Oct-23 14:05 38.033469 -108.233226 291 18508ft 192kts
18-Oct-23 14:06 38.008284 -108.282001 171 19886ft 230kts
18-Oct-23 14:07 37.955373 -108.239793 140 21265ft 225kts
18-Oct-23 14:08 37.906717 -108.190611 154 22537ft 231kts
18-Oct-23 14:09 37.847150 -108.160318 154 23844ft 231kts
18-Oct-23 14:10 37.787444 -108.130017 153 24990ft 233kts
18-Oct-23 14:11 37.726804 -108.099296 153 26036ft 235kts
18-Oct-23 14:12 37.665978 -108.068538 152 26939ft 236kts
18-Oct-23 14:13 37.604923 -108.037699 152 27867ft 236kts
18-Oct-23 14:14 37.539202 -108.004455 152 27963ft 278kts
18-Oct-23 14:15 37.462105 -107.965673 153 27934ft 316kts
18-Oct-23 14:16 37.376856 -107.922905 153 27908ft 340kts
18-Oct-23 14:17 37.294461 -107.864046 137 27901ft 344kts
18-Oct-23 14:18 37.212855 -107.796998 142 27873ft 354kts
18-Oct-23 14:19 37.126856 -107.735072 160 27832ft 365kts
18-Oct-23 14:20 37.024700 -107.729023 173 27857ft 368kts
18-Oct-23 14:21 36.922482 -107.716440 170 27860ft 368kts
18-Oct-23 14:22 36.820335 -107.702203 170 27841ft 368kts
18-Oct-23 14:23 36.718913 -107.687802 170 27846ft 366kts
18-Oct-23 14:24 36.622596 -107.654973 163 27823ft 363kts
18-Oct-23 14:25 36.522838 -107.632724 167 27858ft 364kts
18-Oct-23 14:26 36.422534 -107.613833 167 27847ft 364kts
18-Oct-23 14:27 36.321947 -107.595274 167 27843ft 364kts
18-Oct-23 14:28 36.219951 -107.576727 169 27248ft 380kts
18-Oct-23 14:29 36.118620 -107.557928 167 26139ft 355kts
18-Oct-23 14:30 36.024533 -107.529963 154 24758ft 342kts
18-Oct-23 14:31 35.941508 -107.478335 148 23463ft 331kts
18-Oct-23 14:32 35.863396 -107.421730 144 21826ft 321kts
18-Oct-23 14:33 35.788348 -107.364563 144 20058ft 313kts
18-Oct-23 14:34 35.717632 -107.305844 145 17889ft 303kts
18-Oct-23 14:35 35.646145 -107.252577 147 15962ft 299kts
18-Oct-23 14:36 35.575050 -107.200572 148 14113ft 293kts
18-Oct-23 14:37 35.505560 -107.149932 149 13734ft 299kts
18-Oct-23 14:38 35.431723 -107.096319 148 13684ft 314kts
18-Oct-23 14:39 35.359051 -107.043539 148 12617ft 293kts
18-Oct-23 14:40 35.290322 -106.993811 148 11556ft 280kts
18-Oct-23 14:41 35.225783 -106.947194 148 11497ft 258kts
18-Oct-23 14:42 35.163611 -106.902329 146 11520ft 261kts
18-Oct-23 14:43 35.115383 -106.838063 128 10781ft 254kts
18-Oct-23 14:44 35.069516 -106.773447 128 8827ft 253kts
18-Oct-23 14:45 35.030430 -106.710238 122 7957ft 202kts
18-Oct-23 14:46 35.002901 -106.665329 127 7372ft 165kts
18-Oct-23 14:47 34.975198 -106.627657 132 6985ft 147kts
18-Oct-23 14:48 34.981844 -106.584936 48 6986ft 147kts
18-Oct-23 14:49 35.014356 -106.579509 327 6119ft 115kts
18-Oct-23 14:50 35.034694 -106.607494 312 5316ft 104kts
18-Oct-23 14:51 35.040478 -106.617357 181 5310ft 8kts
18-Oct-23 14:52 35.039628 -106.618221 235 5310ft 5kts
18-Oct-23 14:53 35.039230 -106.618304 181 5310ft 0kts
18-Oct-23 14:54 35.039230 -106.618304 181 5310ft 0kts
18-Oct-23 14:55 35.039230 -106.618304 181 5310ft 0kts
18-Oct-23 14:56 35.039230 -106.618304 181 5310ft 0kts

Navigation Log

Ident Type
Flight plan parsing failed, navigation log unavailable